Aérodrome :
LOGIN :

S'inscrire | Disclaimer

   EN    FR    IT 

 










Légende :    VFR   VFR Marginal   IFR   IFR Intensif   IFR Très Intensif
Visi : 
Plafond : 
>= 8 km
>= 3000ft
5 à 8 km
1000 à 3000 ft
1500m à 5 km
500 à 1000 ft
800 à 1500m
200 à 500 ft
< 800m
< 200 ft
Symboles :   Orages  Brouillard  Fortes neiges  Fortes précipitations  Vent > 20 kt
SIGMETs :   Divers  Orages  Givrage  Turbulence  Onde Orograph.  Cendres Volcan.







- Altitude de l'aérodrome : 374 ft
- Code IATA : LIS


LPPT - Lisboa Portela

DERNIER METAR :
  • 171700Z 33020KT CAVOK 26/16 Q1018

METARs EXPIRÉS :
  • 171630Z 32016KT CAVOK 27/16 Q1018
  • 171600Z 32015KT CAVOK 29/15 Q1018
  • 171530Z 31013KT CAVOK 29/15 Q1018
  • 171500Z 33013KT 290V350 CAVOK 31/15 Q1018
  • 171430Z 34014KT 300V360 9999 FEW030 31/14 Q1018

TAF TAF LPPT
Valide du 17 à 12h jusqu'au 18 à 18h UTC


171100Z 1712/1818 33015KT CAVOK
PROB40
TEMPO 1715/1721 33018G28KT
BECMG 1721/1724 35012KT 9999 SCT012
TEMPO 1800/1808 BKN008
BECMG 1808/1810 CAVOK
TEMPO 1814/1818 34018G28KT
Pas de NOTAMs connus pour ce terrain.



MET'MAP, la Météo Aéronautique d'un coup d'oeil ! - Copyright ORBIFLY Décembre 2007 - Disclaimer

ORBIFLY MET'MAP TEAM :

Programmation & Développement : Alexandra Zaïnal
Conception & Développement : Baudouin d'Aumeries
Co-Programmation & Développement : Marc-Olivier Méhu
Soutien technique & logistique : Manuel Goepfert

Contact : metmap@orbifly.com




SOURCES & CREDITS :

   NOAA